If you wish to contribute or participate in the discussions about articles you are invited to join SKYbrary as a registered user

 Actions

Imperatriz Airport

From SKYbrary Wiki

SBIZ
Airport
ICAO: SBIZ – IATA: IMP
Summary
Name Imperatriz Airport
Region South America and Caribbean
Territory Brazil BR.gif
Location Imperatriz, Maranhao
Serving Imperatriz
Elevation 131.369 m
431 ft131.369 m
Coordinates 5° 31' 50.02" S, 47° 27' 29.99" W
Runways
Designator Length Width Surface ROPS
7/25 1798 m5,898.95 ft
45 m147.638 ft
ASP yes/yes


METAR
Observation SBIZ 210700Z 00000KT CAVOK 23/21 Q1013
Station Imperatriz
Date/Time 21 August 2019 07:00:00
Wind direction
Wind speed 00 kts
Lowest cloud amount clouds and visibility OK
Temperature 23°C
Dew point 21°C
Humidity 88%
QNH 1013 hPa
Weather condition n/a

Imperatriz-Prefeito Renato Moreira Airport is the airport serving Imperatriz, Brazil.

Climatology

Tropical savanna climate (Köppen climate classification Aw)

Maps

Terrain

Loading map...

Airport Layout

Loading map...


Accidents & Serious Incidents at or in vicinity of SBIZ

None on SKYbrary